AirNav   Everest Fuels
 
 1290 users online  

F17 Center Municipal Airport
Center, Texas, USA

GOING TO CENTER?


FAA INFORMATION EFFECTIVE 05 DECEMBER 2019

Location

FAA Identifier: F17
Lat/Long: 31-49-53.7000N 094-09-23.1000W
31-49.895000N 094-09.385000W
31.8315833,-94.1564167
(estimated)
Elevation: 318.6 ft. / 97.1 m (surveyed)
Variation: 04E (1995)
From city: 3 miles NE of CENTER, TX
Time zone: UTC -6 (UTC -5 during Daylight Saving Time)
Zip code: 75935

Airport Operations

Airport use: Open to the public
Activation date: 02/1949
Control tower: no
ARTCC: FORT WORTH CENTER
FSS: MONTGOMERY COUNTY FLIGHT SERVICE STATION
NOTAMs facility: F17 (NOTAM-D service available)
Attendance: MON-FRI 0600-1500
Wind indicator: lighted
Segmented circle: yes
Lights: MIRL RY 17/35 PRESET LOW INTST; TO INCR INTST ACTVT - CTAF.
Beacon: white-green (lighted land airport)
Operates sunset to sunrise.

Airport Communications

CTAF/UNICOM: 122.8
WX AWOS-3PT: 128.775 (936-598-3355)
  • APCH/DEP SVC PRVDD BY FORT WORTH ARTCC ON FREQS 126.325/346.25 (SHREVEPORT RCAG).

Nearby radio navigation aids

NDB name  Hdg/Dist  Freq  Var  ID
AMASONat field34104ECZJ -.-. --.. .---
CARTHAGE157/22.133204ERPF .-. .--. ..-.
NACOGDOCHES064/30.139105EGXD --. -..- -..

Airport Services

Fuel available: 100LL JET-A+
24 HR SELF SERVICE FUEL WITH CREDIT CARD.
Parking: tiedowns
Airframe service: MINOR
Powerplant service: MAJOR
Bottled oxygen: NONE
Bulk oxygen: NONE

Runway Information

Runway 17/35

Dimensions: 5501 x 75 ft. / 1677 x 23 m
Surface: asphalt, in good condition
Weight bearing capacity: 
Single wheel: 30.0
Runway edge lights: medium intensity
Runway edge markings: MARKINGS FADED
RUNWAY 17  RUNWAY 35
Latitude: 31-50.343220N31-49.448257N
Longitude: 094-09.472858W094-09.298037W
Elevation: 318.5 ft.290.9 ft.
Traffic pattern: leftleft
Runway heading: 167 magnetic, 171 true347 magnetic, 351 true
Markings: nonprecision, in poor conditionnonprecision, in poor condition
Visual slope indicator: 2-light PAPI on left (3.00 degrees glide path)2-light PAPI on left (3.00 degrees glide path)
Touchdown point: yes, no lightsyes, no lights
Obstructions: 26 ft. trees, 511 ft. from runway, 230 ft. right of centerline, 11:1 slope to clear70 ft. trees, 988 ft. from runway, 280 ft. left of centerline, 11:1 slope to clear

Airport Ownership and Management from official FAA records

Ownership: Publicly-owned
Owner: CITY OF CENTER
PO BOX 1744
CENTER, TX 75935
Phone 936-598-2941
Manager: JIM GIBSON
397 FM 1656
CENTER, TX 75935
Phone 936-598-8119
EMERGENCY PHONE: 936-598-2788.

Airport Operational Statistics

Aircraft based on the field: 27
Single engine airplanes: 17
Multi engine airplanes: 4
Jet airplanes: 3
Helicopters: 2
Ultralights: 1
    
Aircraft operations: avg 67/day *
75% local general aviation
25% transient general aviation
<1% military
* for 12-month period ending 23 March 2019

Additional Remarks

DEER ON & INVOF RY.
FOR CD IF UNA TO CTC ON FSS FREQ, CTC FORT WORTH ARTCC AT 817-858-7584.

Instrument Procedures

NOTE: All procedures below are presented as PDF files. If you need a reader for these files, you should download the free Adobe Reader.

NOT FOR NAVIGATION. Please procure official charts for flight.
FAA instrument procedures published for use from 05 December 2019 at 0900Z to 02 January 2020 at 0900Z.

 
IAPs - Instrument Approach Procedures
RNAV (GPS) RWY 17   download (147KB)
RNAV (GPS) RWY 35   download (164KB)
NDB RWY 17   download (160KB)
NOTE: Special Take-Off Minimums/Departure Procedures apply   download (70KB)

Other nearby airports with instrument procedures:

4F2 - Panola County Airport-Sharpe Field (22 nm N)
3F3 - C E 'Rusty' Williams Airport (25 nm NE)
KOCH - Nacogdoches A L Mangham Jr. Regional Airport (32 nm SW)
3R4 - Hart Airport (38 nm SE)
KRFI - Rusk County Airport (40 nm NW)
 
Loc | Ops | Rwys | IFR | FBO | Links
Com | Nav | Svcs | Stats | Notes
Area around F17 (Center Municipal Airport)
 
Road maps at: MapQuest Bing Google
 
Aerial photo
No photo
 
Sectional chart

 
Airport distance calculator
Flying to Center Municipal Airport? Find the distance to fly.

From to F17

Sunrise and sunset
Times for 11-Dec-2019
 Local
(UTC-6)
 Zulu
(UTC)
Morning civil twilight06:4112:41
Sunrise07:0813:08
Sunset17:1223:12
Evening civil twilight17:3923:39

Current date and time
Zulu (UTC)  11-Dec-2019 17:59:02
Local (UTC-6)  11-Dec-2019 11:59:02
 
METAR
KF17 111755Z AUTO 01003KT 10SM CLR 08/M01 A3056 RMK AO2 T00801012 10081 21012
TAF
KSHV 
41nm NE 
111555Z 1116/1212 08006KT P6SM SKC FM120000 VRB03KT P6SM SKC
KGGG 
44nm NW 
111120Z 1112/1212 VRB03KT P6SM SKC FM111600 09005KT P6SM SKC FM120000 12003KT P6SM FEW280
KLFK 
47nm SW 
111410Z 1114/1212 03005KT P6SM SCT007 TEMPO 1114/1115 BKN007 FM111600 06006KT P6SM SKC FM120000 09003KT P6SM SKC
KBAD 
47nm NE 
111003Z 1110/1216 05008KT 9999 SKC QNH3042INS TX10/1122Z TNM02/1113Z
NOTAMs
Click for the latest NOTAMs
NOTAMs are issued by the DoD/FAA and will open in a separate window not controlled by AirNav.

 

 
 

FBO, Fuel Providers, and Aircraft Ground Support

  
 Business Name 
 
 Contact 
 
 Services / Description 
 
Fuel Prices
 
Comments
  
Center Municipal Airport 936-598-8119
no information available

If you are affiliated with Center Municipal Airport and would like to show here your services, contact info, web link, logo, and more, click here
100LL Jet A
SS $3.99 $3.85 
 Updated 15-Oct-2019
 
   write
SS=Self service
Update Fuel Prices
 

Would you like to see your business listed on this page?

 If your business provides an interesting product or service to pilots, flight crews, aircraft, or users of the Center Municipal Airport, you should consider listing it here.  To start the listing process, click on the button below
 
Add a business
 

Other Pages about Center Municipal Airport

www.centertexas.org/center-municipal-airport
 
Update a link
 
Copyright © AirNav, LLC. All rights reserved. Privacy Policy  Contact